createdAt,value
2023-05-22T00:02:38.654Z,9.3
2023-05-22T00:07:36.613Z,9.1
2023-05-22T00:12:38.297Z,9.1
2023-05-22T00:17:35.730Z,9.2
2023-05-22T00:22:33.854Z,9.1
2023-05-22T00:27:32.147Z,9.2
2023-05-22T00:32:30.337Z,9.4
2023-05-22T00:37:28.592Z,9.4
2023-05-22T00:42:26.705Z,9.3
2023-05-22T00:47:24.530Z,9.2
2023-05-22T00:52:22.768Z,9.3
2023-05-22T00:57:21.252Z,9.1
2023-05-22T01:02:19.316Z,9.1
2023-05-22T01:07:17.438Z,8.9
2023-05-22T01:12:15.649Z,8.9
2023-05-22T01:17:13.863Z,8.9
2023-05-22T01:22:15.399Z,8.9
2023-05-22T01:27:12.751Z,9.1
2023-05-22T01:32:11.095Z,9.3
2023-05-22T01:37:09.502Z,9.1
2023-05-22T01:42:07.443Z,9.3
2023-05-22T01:47:05.517Z,9.4
2023-05-22T01:52:03.762Z,9.5
2023-05-22T01:57:02.150Z,9.8
2023-05-22T02:02:00.476Z,10
2023-05-22T02:06:58.589Z,10.1
2023-05-22T02:11:56.647Z,10.1
2023-05-22T02:16:54.759Z,10.4
2023-05-22T02:21:52.987Z,10.5
2023-05-22T02:26:51.131Z,10.5
2023-05-22T02:31:49.413Z,10.5
2023-05-22T02:36:47.245Z,10.4
2023-05-22T02:41:45.189Z,10.4
2023-05-22T02:46:43.265Z,10.4
2023-05-22T02:51:41.591Z,10.4
2023-05-22T02:56:39.521Z,10.4
2023-05-22T03:01:37.692Z,10.4
2023-05-22T03:06:36.193Z,10.6
2023-05-22T03:11:34.499Z,10.7
2023-05-22T03:16:32.829Z,10.7
2023-05-22T03:21:31.180Z,10.9
2023-05-22T03:26:29.892Z,11.2
2023-05-22T03:31:28.561Z,11.8
2023-05-22T03:36:27.489Z,12.6
2023-05-22T03:41:26.808Z,13.5
2023-05-22T03:46:24.428Z,13.1
2023-05-22T03:51:23.129Z,13.6
2023-05-22T03:56:21.393Z,13
2023-05-22T04:01:18.822Z,12.3
2023-05-22T04:06:16.797Z,12.2
2023-05-22T04:11:15.174Z,12.6
2023-05-22T04:16:17.132Z,12.7
2023-05-22T04:21:14.870Z,13.8
2023-05-22T04:26:14.992Z,14.6
2023-05-22T04:31:13.225Z,14.4
2023-05-22T04:36:12.543Z,14.4
2023-05-22T04:41:09.415Z,14.3
2023-05-22T04:46:07.689Z,14.8
2023-05-22T04:51:05.865Z,14.8
2023-05-22T04:56:04.404Z,15.1
2023-05-22T05:01:02.324Z,15.3
2023-05-22T05:06:00.784Z,15.6
2023-05-22T05:10:59.649Z,16.3
2023-05-22T05:15:58.094Z,16.9
2023-05-22T05:20:56.374Z,17.2
2023-05-22T05:25:55.283Z,18.2
2023-05-22T05:30:53.751Z,18
2023-05-22T05:35:53.007Z,19.8
2023-05-22T05:40:52.009Z,19.7
2023-05-22T05:45:51.192Z,19.7
2023-05-22T05:50:48.610Z,18.6
2023-05-22T05:55:46.117Z,18.2
2023-05-22T06:00:44.261Z,18.6
2023-05-22T06:05:42.740Z,19.1
2023-05-22T06:10:41.853Z,20
2023-05-22T06:15:40.456Z,20.4
2023-05-22T06:20:43.201Z,24
2023-05-22T06:25:47.142Z,26.1
2023-05-22T06:30:44.774Z,29
2023-05-22T06:35:48.895Z,30.5
2023-05-22T06:40:47.174Z,35.9
2023-05-22T06:45:50.280Z,38.8
2023-05-22T06:50:49.182Z,38.5
2023-05-22T06:55:46.927Z,40.7
2023-05-22T07:00:49.426Z,40
2023-05-22T07:05:47.420Z,40
2023-05-22T07:10:45.981Z,42.4
2023-05-22T07:15:45.811Z,39.7
2023-05-22T07:20:41.139Z,37.7
2023-05-22T07:25:32.815Z,31.1
2023-05-22T07:30:30.485Z,33.1
2023-05-22T07:35:33.282Z,37.9
2023-05-22T07:40:33.649Z,36
2023-05-22T07:45:24.145Z,29.4
2023-05-22T07:50:19.226Z,28.3
2023-05-22T07:55:21.361Z,31.1
2023-05-22T08:00:23.572Z,37.7
2023-05-22T08:05:26.986Z,40.7
2023-05-22T08:10:29.956Z,43.3
2023-05-22T08:15:25.747Z,43.5
2023-05-22T08:20:24.311Z,44.4
2023-05-22T08:25:18.689Z,37.7
2023-05-22T08:30:26.878Z,45.8
2023-05-22T08:35:24.882Z,45.3
2023-05-22T08:40:22.905Z,44.5
2023-05-22T08:45:22.012Z,46
2023-05-22T08:50:20.602Z,47.6
2023-05-22T08:55:19.632Z,47.4
2023-05-22T09:00:17.372Z,47.2
2023-05-22T09:05:15.626Z,46.1
2023-05-22T09:10:12.838Z,45
2023-05-22T09:15:09.719Z,43.1
2023-05-22T09:20:06.226Z,42.1
2023-05-22T09:25:04.652Z,40.3
2023-05-22T09:30:01.608Z,40.4
2023-05-22T09:35:00.869Z,43.3
2023-05-22T09:40:01.656Z,44.3
2023-05-22T09:44:58.918Z,41.8
2023-05-22T09:49:57.739Z,44.5
2023-05-22T09:54:56.714Z,45.9
2023-05-22T09:59:55.212Z,45.1
2023-05-22T10:04:50.618Z,44.4
2023-05-22T10:09:49.653Z,44.7
2023-05-22T10:14:46.702Z,44.6
2023-05-22T10:19:43.421Z,39.5
2023-05-22T10:24:36.652Z,35.2
2023-05-22T10:29:34.899Z,37
2023-05-22T10:34:30.727Z,34.3
2023-05-22T10:39:29.370Z,36.4
2023-05-22T10:44:28.662Z,36.5
2023-05-22T10:49:25.498Z,35.8
2023-05-22T10:54:24.209Z,38.2
2023-05-22T10:59:25.052Z,40.1
2023-05-22T11:04:20.099Z,34.8
2023-05-22T11:09:15.488Z,33.4
2023-05-22T11:14:12.176Z,32.5
2023-05-22T11:19:23.086Z,40.1
2023-05-22T11:24:17.024Z,38.5
2023-05-22T11:29:12.238Z,36.8
2023-05-22T11:34:14.802Z,40.8
2023-05-22T11:39:16.282Z,42.6
2023-05-22T11:44:16.472Z,43.8
2023-05-22T11:49:13.382Z,41.9
2023-05-22T11:54:07.933Z,42.4
2023-05-22T11:59:09.101Z,43.7
2023-05-22T12:04:05.705Z,42.8
2023-05-22T12:09:01.557Z,38.5
2023-05-22T12:13:56.163Z,35.5
2023-05-22T12:18:51.058Z,33
2023-05-22T12:23:46.339Z,29.8
2023-05-22T12:28:42.668Z,28.2
2023-05-22T12:33:38.944Z,27.1
2023-05-22T12:38:36.777Z,26.4
2023-05-22T12:43:34.872Z,27.6
2023-05-22T12:48:33.132Z,27.6
2023-05-22T12:53:32.126Z,28.6
2023-05-22T12:58:30.516Z,28.3
2023-05-22T13:03:28.013Z,27.8
2023-05-22T13:08:27.169Z,28.6
2023-05-22T13:13:25.695Z,30
2023-05-22T13:18:24.383Z,30.5
2023-05-22T13:23:21.887Z,31.1
2023-05-22T13:28:23.621Z,33.1
2023-05-22T13:33:20.218Z,30
2023-05-22T13:38:16.405Z,28.6
2023-05-22T13:43:13.592Z,28.2
2023-05-22T13:48:11.418Z,28.3
2023-05-22T13:53:09.102Z,27.8
2023-05-22T13:58:07.230Z,27.7
2023-05-22T14:03:05.831Z,29.1
2023-05-22T14:08:03.918Z,28.1
2023-05-22T14:13:01.404Z,27.8
2023-05-22T14:17:59.214Z,26.9
2023-05-22T14:22:58.041Z,26.7
2023-05-22T14:27:54.860Z,26.2
2023-05-22T14:32:51.812Z,25
2023-05-22T14:37:48.464Z,23.4
2023-05-22T14:42:45.415Z,22
2023-05-22T14:47:42.763Z,21
2023-05-22T14:52:40.317Z,21
2023-05-22T14:57:38.458Z,20.9
2023-05-22T15:02:36.384Z,20.5
2023-05-22T15:07:43.713Z,20.6
2023-05-22T15:12:33.098Z,21.4
2023-05-22T15:17:32.045Z,22.2
2023-05-22T15:22:30.310Z,22.5
2023-05-22T15:27:28.804Z,22.9
2023-05-22T15:32:26.311Z,22.6
2023-05-22T15:37:25.511Z,23.5
2023-05-22T15:42:23.967Z,23.1
2023-05-22T15:47:21.690Z,22.4
2023-05-22T15:52:19.689Z,22.4
2023-05-22T15:57:17.607Z,21.7
2023-05-22T16:02:14.958Z,20.6
2023-05-22T16:07:12.169Z,19.8
2023-05-22T16:12:10.131Z,19.4
2023-05-22T16:17:08.304Z,19.5
2023-05-22T16:22:06.441Z,18.6
2023-05-22T16:27:04.386Z,18
2023-05-22T16:32:01.982Z,17.9
2023-05-22T16:37:00.122Z,17.7
2023-05-22T16:41:57.854Z,17
2023-05-22T16:46:59.770Z,17
2023-05-22T16:51:56.932Z,16.5
2023-05-22T16:56:54.906Z,16.5
2023-05-22T17:01:52.906Z,16.3
2023-05-22T17:06:51.163Z,15.9
2023-05-22T17:11:49.107Z,15.7
2023-05-22T17:16:47.198Z,15.3
2023-05-22T17:21:44.992Z,15.1
2023-05-22T17:26:43.465Z,15.1
2023-05-22T17:31:41.306Z,14.6
2023-05-22T17:36:40.082Z,14.4
2023-05-22T17:41:37.599Z,14.3
2023-05-22T17:46:35.947Z,14.3
2023-05-22T17:51:34.381Z,14.4
2023-05-22T17:56:36.745Z,14.4
2023-05-22T18:01:34.073Z,14.3
2023-05-22T18:06:32.234Z,14.2
2023-05-22T18:11:30.181Z,14
2023-05-22T18:16:28.359Z,13.8
2023-05-22T18:21:26.285Z,13.6
2023-05-22T18:26:24.242Z,13.4
2023-05-22T18:31:22.188Z,13.1
2023-05-22T18:36:20.231Z,12.9
2023-05-22T18:41:18.107Z,12.7
2023-05-22T18:46:16.226Z,12.3
2023-05-22T18:51:14.242Z,12.3
2023-05-22T18:56:12.173Z,11.9
2023-05-22T19:01:10.088Z,11.6
2023-05-22T19:06:08.209Z,11.4
2023-05-22T19:11:06.717Z,11.2
2023-05-22T19:16:04.907Z,11.1
2023-05-22T19:21:03.312Z,11.6
2023-05-22T19:26:01.945Z,12.2
2023-05-22T19:31:00.590Z,12.6
2023-05-22T19:35:59.103Z,12.7
2023-05-22T19:41:01.280Z,12.7
2023-05-22T19:45:59.028Z,12.9
2023-05-22T19:50:57.287Z,13.1
2023-05-22T19:55:55.803Z,12.8
2023-05-22T20:00:53.990Z,12.7
2023-05-22T20:05:52.093Z,12.5
2023-05-22T20:10:50.209Z,12.7
2023-05-22T20:15:48.664Z,12.9
2023-05-22T20:20:46.588Z,12.9
2023-05-22T20:25:44.799Z,12.8
2023-05-22T20:30:43.110Z,12.9
2023-05-22T20:35:41.656Z,12.9
2023-05-22T20:40:39.675Z,13
2023-05-22T20:45:37.835Z,12.8
2023-05-22T20:50:37.563Z,12.8
2023-05-22T20:55:34.141Z,12.7
2023-05-22T21:00:32.719Z,12.9
2023-05-22T21:05:31.070Z,12.7
2023-05-22T21:10:29.151Z,12.6
2023-05-22T21:15:27.444Z,12.5
2023-05-22T21:20:25.651Z,12.3
2023-05-22T21:25:23.638Z,12.2
2023-05-22T21:30:21.882Z,12.3
2023-05-22T21:35:20.151Z,12.3
2023-05-22T21:40:18.319Z,12.2
2023-05-22T21:45:16.334Z,12
2023-05-22T21:50:14.229Z,11.9
2023-05-22T21:55:12.466Z,11.8
2023-05-22T22:00:11.467Z,11.7
2023-05-22T22:05:08.982Z,11.6
2023-05-22T22:10:07.227Z,11.5
2023-05-22T22:15:06.013Z,11.4
2023-05-22T22:20:04.099Z,11.4
2023-05-22T22:25:02.234Z,11.3
2023-05-22T22:30:00.364Z,11.3
2023-05-22T22:34:58.055Z,11.1
2023-05-22T22:39:56.690Z,11.1
2023-05-22T22:44:54.828Z,11.1
2023-05-22T22:49:52.748Z,11
2023-05-22T22:54:50.875Z,10.9
2023-05-22T22:59:48.884Z,10.9
2023-05-22T23:04:47.102Z,10.8
2023-05-22T23:09:45.198Z,10.7
2023-05-22T23:14:43.307Z,10.4
2023-05-22T23:19:41.156Z,10.1
2023-05-22T23:24:38.923Z,9.8
2023-05-22T23:29:37.021Z,9.5
2023-05-22T23:34:35.070Z,9.1
2023-05-22T23:39:32.951Z,8.8
2023-05-22T23:44:31.055Z,8.8
2023-05-22T23:54:27.366Z,8.4
2023-05-22T23:59:25.579Z,8.4
